createdAt,value
2019-03-12T00:00:44.928Z,3.57
2019-03-12T00:03:33.251Z,3.83
2019-03-12T00:06:21.153Z,4.10
2019-03-12T00:09:08.980Z,4.30
2019-03-12T00:11:56.792Z,3.73
2019-03-12T00:14:44.654Z,4.07
2019-03-12T00:17:32.528Z,4.17
2019-03-12T00:20:20.672Z,3.50
2019-03-12T00:23:08.473Z,3.70
2019-03-12T00:25:49.433Z,4.17
2019-03-12T00:28:30.470Z,3.73
2019-03-12T00:31:11.132Z,3.30
2019-03-12T00:33:52.205Z,3.47
2019-03-12T00:36:33.616Z,3.27
2019-03-12T00:39:14.921Z,3.10
2019-03-12T00:41:55.750Z,2.93
2019-03-12T00:44:36.543Z,3.33
2019-03-12T00:47:17.245Z,3.37
2019-03-12T00:49:58.132Z,3.20
2019-03-12T00:52:39.395Z,3.47
2019-03-12T00:55:48.694Z,3.80
2019-03-12T00:58:17.390Z,4.47
2019-03-12T01:01:05.192Z,3.60
2019-03-12T01:03:53.261Z,3.97
2019-03-12T01:06:41.053Z,4.27
2019-03-12T01:09:21.751Z,4.33
2019-03-12T01:12:02.583Z,4.57
2019-03-12T01:14:43.561Z,3.90
2019-03-12T01:17:24.165Z,4.23
2019-03-12T01:20:05.269Z,3.90
2019-03-12T01:22:45.959Z,4.50
2019-03-12T01:25:26.980Z,3.80
2019-03-12T01:28:08.030Z,3.93
2019-03-12T01:30:48.411Z,3.80
2019-03-12T01:33:16.862Z,4.63
2019-03-12T01:36:04.642Z,4.17
2019-03-12T01:38:52.453Z,3.77
2019-03-12T01:41:40.232Z,3.87
2019-03-12T01:44:28.210Z,4.10
2019-03-12T01:47:16.014Z,4.40
2019-03-12T01:50:24.578Z,4.00
2019-03-12T01:53:12.374Z,4.67
2019-03-12T01:56:00.453Z,4.10
2019-03-12T01:58:48.262Z,4.70
2019-03-12T02:01:36.047Z,4.73
2019-03-12T02:04:24.001Z,5.10
2019-03-12T02:07:11.853Z,5.20
2019-03-12T02:09:59.649Z,4.83
2019-03-12T02:12:47.430Z,4.60
2019-03-12T02:15:35.225Z,4.27
2019-03-12T02:18:23.026Z,4.60
2019-03-12T02:21:10.791Z,3.73
2019-03-12T02:23:52.079Z,4.40
2019-03-12T02:26:32.898Z,4.67
2019-03-12T02:29:13.271Z,4.80
2019-03-12T02:31:54.326Z,4.53
2019-03-12T02:34:35.344Z,4.40
2019-03-12T02:37:16.297Z,4.37
2019-03-12T02:39:57.214Z,4.53
2019-03-12T02:42:37.860Z,4.80
2019-03-12T02:45:18.644Z,4.20
2019-03-12T02:47:59.852Z,4.73
2019-03-12T02:50:28.576Z,4.17
2019-03-12T02:53:16.775Z,3.90
2019-03-12T02:56:04.639Z,3.90
2019-03-12T02:58:52.443Z,4.40
2019-03-12T03:01:40.402Z,4.47
2019-03-12T03:04:28.226Z,5.27
2019-03-12T03:13:13.470Z,4.53
2019-03-12T03:16:01.280Z,4.67
2019-03-12T03:18:49.145Z,4.13
2019-03-12T03:21:37.123Z,3.60
2019-03-12T03:24:24.987Z,4.03
2019-03-12T03:27:13.203Z,4.17
2019-03-12T03:30:01.477Z,4.10
2019-03-12T03:32:42.409Z,4.13
2019-03-12T03:35:23.156Z,4.40
2019-03-12T03:38:03.783Z,5.00
2019-03-12T03:40:32.224Z,4.27
2019-03-12T03:43:20.021Z,4.67
2019-03-12T03:46:07.813Z,5.20
2019-03-12T03:48:55.846Z,5.10
2019-03-12T03:51:43.886Z,5.07
2019-03-12T03:54:31.685Z,5.30
2019-03-12T03:57:19.475Z,5.90
2019-03-12T04:00:28.291Z,6.10
2019-03-12T04:03:16.186Z,6.33
2019-03-12T04:06:04.046Z,5.90
2019-03-12T04:08:51.930Z,6.57
2019-03-12T04:11:39.877Z,5.90
2019-03-12T04:14:27.604Z,5.73
2019-03-12T04:17:15.409Z,5.57
2019-03-12T04:20:04.235Z,6.10
2019-03-12T04:22:52.289Z,6.27
2019-03-12T04:25:40.785Z,5.90
2019-03-12T04:28:28.802Z,7.20
2019-03-12T04:31:16.800Z,6.93
2019-03-12T04:33:57.873Z,7.50
2019-03-12T04:36:41.119Z,6.93
2019-03-12T04:42:04.919Z,7.17
2019-03-12T04:44:45.532Z,6.63
2019-03-12T04:50:30.954Z,7.10
2019-03-12T04:53:12.762Z,7.47
2019-03-12T04:55:54.478Z,6.90
2019-03-12T04:58:23.246Z,6.50
2019-03-12T05:01:11.507Z,6.30
2019-03-12T05:03:59.328Z,7.50
2019-03-12T05:06:47.175Z,8.63
2019-03-12T05:09:35.111Z,7.83
2019-03-12T05:12:23.620Z,7.93
2019-03-12T05:15:12.571Z,7.80
2019-03-12T05:18:00.559Z,7.27
2019-03-12T05:20:48.620Z,7.33
2019-03-12T05:23:31.081Z,7.57
2019-03-12T05:26:12.680Z,7.07
2019-03-12T05:28:55.369Z,6.93
2019-03-12T05:34:23.084Z,7.83
2019-03-12T05:37:03.333Z,7.33
2019-03-12T05:39:47.566Z,7.90
2019-03-12T05:42:29.238Z,8.90
2019-03-12T05:45:10.466Z,9.47
2019-03-12T05:47:51.256Z,9.43
2019-03-12T05:50:33.259Z,9.67
2019-03-12T05:53:15.527Z,10.03
2019-03-12T05:55:58.226Z,10.67
2019-03-12T05:58:39.367Z,9.73
2019-03-12T06:01:20.962Z,10.67
2019-03-12T06:06:50.571Z,10.80
2019-03-12T06:12:21.859Z,10.13
2019-03-12T06:15:03.122Z,10.87
2019-03-12T06:17:45.222Z,10.73
2019-03-12T06:23:15.657Z,9.50
2019-03-12T06:25:56.856Z,10.03
2019-03-12T06:28:39.958Z,10.20
2019-03-12T06:34:11.517Z,9.23
2019-03-12T06:39:53.264Z,9.80
2019-03-12T06:42:35.663Z,9.13
2019-03-12T06:48:13.369Z,9.33
2019-03-12T06:54:00.008Z,9.00
2019-03-12T06:59:34.975Z,10.00
2019-03-12T07:08:18.733Z,7.57
2019-03-12T07:11:08.154Z,7.90
2019-03-12T07:13:51.235Z,6.23
2019-03-12T07:19:47.517Z,5.37
2019-03-12T07:25:40.327Z,5.30
2019-03-12T07:34:36.247Z,5.20
2019-03-12T07:40:04.090Z,4.93
2019-03-12T07:42:47.014Z,4.13
2019-03-12T07:57:26.534Z,5.40
2019-03-12T08:02:57.685Z,5.60
2019-03-12T08:08:43.420Z,6.20
2019-03-12T08:17:19.032Z,5.77
2019-03-12T08:40:32.198Z,4.60
2019-03-12T08:49:21.689Z,4.07
2019-03-12T08:57:50.723Z,4.23
2019-03-12T09:06:29.605Z,4.70
2019-03-12T09:14:54.941Z,4.93
2019-03-12T10:02:13.124Z,5.13
2019-03-12T10:05:03.092Z,5.97
2019-03-12T10:08:12.033Z,4.90
2019-03-12T10:17:00.473Z,6.07
2019-03-12T12:31:55.225Z,5.77
2019-03-12T12:34:36.283Z,5.30
2019-03-12T12:37:17.588Z,5.27
2019-03-12T12:39:46.302Z,5.43
2019-03-12T12:42:36.160Z,5.53
2019-03-12T12:45:43.666Z,5.23
2019-03-12T12:48:31.838Z,5.47
2019-03-12T12:51:19.602Z,4.77
2019-03-12T12:54:09.743Z,3.83
2019-03-12T12:56:57.275Z,4.37
2019-03-12T12:59:45.076Z,4.80
2019-03-12T13:02:32.876Z,4.40
2019-03-12T13:05:20.638Z,3.67
2019-03-12T13:08:08.431Z,4.23
2019-03-12T13:10:56.294Z,3.50
2019-03-12T13:13:44.196Z,3.93
2019-03-12T13:16:32.030Z,3.43
2019-03-12T13:19:13.163Z,3.93
2019-03-12T13:21:55.526Z,3.97
2019-03-12T13:24:36.406Z,4.03
2019-03-12T13:27:17.315Z,4.00
2019-03-12T13:29:58.259Z,3.93
2019-03-12T13:32:39.036Z,3.70
2019-03-12T13:35:19.808Z,3.50
2019-03-12T13:40:46.854Z,3.57
2019-03-12T13:49:13.901Z,3.93
2019-03-12T13:51:55.637Z,3.63
2019-03-12T13:57:37.108Z,3.27
2019-03-12T14:00:19.771Z,3.40
2019-03-12T14:03:00.498Z,3.80
2019-03-12T14:05:41.792Z,3.30
2019-03-12T14:08:22.739Z,2.93
2019-03-12T14:11:03.196Z,3.43
2019-03-12T14:13:46.987Z,3.67
2019-03-12T14:16:27.550Z,4.00
2019-03-12T14:19:08.628Z,3.70
2019-03-12T14:21:50.318Z,3.70
2019-03-12T14:24:19.028Z,3.27
2019-03-12T14:27:06.800Z,4.43
2019-03-12T14:30:13.798Z,3.67
2019-03-12T14:33:01.886Z,3.50
2019-03-12T14:35:51.846Z,4.00
2019-03-12T14:38:39.759Z,3.47
2019-03-12T14:41:27.557Z,3.53
2019-03-12T14:44:15.446Z,4.13
2019-03-12T14:47:06.073Z,3.63
2019-03-12T14:49:53.148Z,3.93
2019-03-12T14:53:01.932Z,3.83
2019-03-12T14:55:50.014Z,3.77
2019-03-12T14:58:37.806Z,4.03
2019-03-12T15:01:25.696Z,3.10
2019-03-12T15:04:15.035Z,3.50
2019-03-12T15:07:02.981Z,3.70
2019-03-12T15:09:50.755Z,3.73
2019-03-12T15:12:38.795Z,3.33
2019-03-12T15:15:26.557Z,3.30
2019-03-12T15:18:21.763Z,4.00
2019-03-12T15:21:09.618Z,3.03
2019-03-12T15:23:57.553Z,3.10
2019-03-12T15:26:45.422Z,3.67
2019-03-12T15:29:33.210Z,3.00
2019-03-12T15:32:21.005Z,3.27
2019-03-12T15:35:02.026Z,3.33
2019-03-12T15:37:42.786Z,3.23
2019-03-12T15:40:23.806Z,3.43
2019-03-12T15:43:04.797Z,3.30
2019-03-12T15:45:45.409Z,3.43
2019-03-12T15:48:26.240Z,3.37
2019-03-12T15:51:07.103Z,2.93
2019-03-12T15:53:47.998Z,3.00
2019-03-12T15:56:28.411Z,3.43
2019-03-12T15:59:09.540Z,3.23
2019-03-12T16:01:50.501Z,3.27
2019-03-12T16:04:18.934Z,2.87
2019-03-12T16:07:06.727Z,3.33
2019-03-12T16:09:54.783Z,3.47
2019-03-12T16:12:42.550Z,3.20
2019-03-12T16:15:30.342Z,2.73
2019-03-12T16:18:18.097Z,3.30
2019-03-12T16:21:05.954Z,3.67
2019-03-12T16:23:54.107Z,2.97
2019-03-12T16:26:41.877Z,2.77
2019-03-12T16:29:29.726Z,3.67
2019-03-12T16:31:58.170Z,4.00
2019-03-12T16:34:39.266Z,3.53
2019-03-12T16:37:20.202Z,3.77
2019-03-12T16:40:01.100Z,3.00
2019-03-12T16:42:41.786Z,3.70
2019-03-12T16:45:22.422Z,2.53
2019-03-12T16:48:03.384Z,3.73
2019-03-12T16:50:44.520Z,3.27
2019-03-12T16:53:24.852Z,3.30
2019-03-12T16:56:05.954Z,3.27
2019-03-12T16:58:46.855Z,3.13
2019-03-12T17:01:27.630Z,3.70
2019-03-12T17:04:08.450Z,3.87
2019-03-12T17:06:49.039Z,3.80
2019-03-12T17:09:29.834Z,2.80
2019-03-12T17:12:10.603Z,3.03
2019-03-12T17:14:51.437Z,2.90
2019-03-12T17:17:32.418Z,3.13
2019-03-12T17:20:13.436Z,2.90
2019-03-12T17:22:52.239Z,3.87
2019-03-12T17:25:40.042Z,3.80
2019-03-12T17:28:27.845Z,3.30
2019-03-12T17:31:15.643Z,3.73
2019-03-12T17:34:03.411Z,2.80
2019-03-12T17:36:51.198Z,4.03
2019-03-12T17:39:38.969Z,2.80
2019-03-12T17:42:26.776Z,3.60
2019-03-12T17:45:14.614Z,3.13
2019-03-12T17:48:02.703Z,3.40
2019-03-12T17:50:50.753Z,3.50
2019-03-12T17:53:38.545Z,3.17
2019-03-12T17:56:26.322Z,3.87
2019-03-12T17:59:14.113Z,3.33
2019-03-12T18:02:01.906Z,2.93
2019-03-12T18:04:49.693Z,3.03
2019-03-12T18:07:37.489Z,3.23
2019-03-12T18:10:25.242Z,2.93
2019-03-12T18:13:13.400Z,3.80
2019-03-12T18:16:01.545Z,3.37
2019-03-12T18:18:49.326Z,4.37
2019-03-12T18:21:30.005Z,3.10
2019-03-12T18:24:10.874Z,3.30
2019-03-12T18:26:51.848Z,3.33
2019-03-12T18:29:32.676Z,3.50
2019-03-12T18:32:13.632Z,3.43
2019-03-12T18:34:54.207Z,3.10
2019-03-12T18:37:34.841Z,2.83
2019-03-12T18:40:15.709Z,3.10
2019-03-12T18:42:56.655Z,3.13
2019-03-12T18:45:37.606Z,2.40
2019-03-12T18:48:18.146Z,3.37
2019-03-12T18:50:58.754Z,4.20
2019-03-12T18:53:39.405Z,3.53
2019-03-12T18:56:20.189Z,3.33
2019-03-12T18:59:00.914Z,2.57
2019-03-12T19:01:41.630Z,3.00
2019-03-12T19:04:22.378Z,3.33
2019-03-12T19:07:02.980Z,3.20
2019-03-12T19:09:43.722Z,3.10
2019-03-12T19:12:24.374Z,4.00
2019-03-12T19:15:05.377Z,2.93
2019-03-12T19:17:45.833Z,2.73
2019-03-12T19:20:26.573Z,3.30
2019-03-12T19:23:07.910Z,3.83
2019-03-12T19:25:48.778Z,3.47
2019-03-12T19:28:29.949Z,3.23
2019-03-12T19:31:15.389Z,3.23
2019-03-12T19:33:57.318Z,2.83
2019-03-12T19:36:38.375Z,3.27
2019-03-12T19:39:19.231Z,2.93
2019-03-12T19:42:00.095Z,3.40
2019-03-12T19:44:41.194Z,2.70
2019-03-12T19:47:22.299Z,3.07
2019-03-12T19:50:03.173Z,3.20
2019-03-12T19:52:43.768Z,2.87
2019-03-12T19:55:24.381Z,2.80
2019-03-12T19:58:05.525Z,2.83
2019-03-12T20:00:46.385Z,3.20
2019-03-12T20:03:26.994Z,3.10
2019-03-12T20:06:07.504Z,2.90
2019-03-12T20:08:48.138Z,2.87
2019-03-12T20:11:28.929Z,3.30
2019-03-12T20:14:10.127Z,3.50
2019-03-12T20:16:50.871Z,2.90
2019-03-12T20:19:31.918Z,3.03
2019-03-12T20:22:39.095Z,2.97
2019-03-12T20:25:47.600Z,2.57
2019-03-12T20:28:54.721Z,2.60
2019-03-12T20:32:01.820Z,3.07
2019-03-12T20:35:09.090Z,3.40
2019-03-12T20:38:16.419Z,2.87
2019-03-12T20:41:24.939Z,2.87
2019-03-12T20:44:33.451Z,2.57
2019-03-12T20:47:40.550Z,2.97
2019-03-12T20:50:47.668Z,2.63
2019-03-12T20:53:54.832Z,2.77
2019-03-12T20:57:01.933Z,3.47
2019-03-12T21:00:09.478Z,2.53
2019-03-12T21:03:17.977Z,2.83
2019-03-12T21:06:25.091Z,2.60
2019-03-12T21:09:33.605Z,3.13
2019-03-12T21:12:40.695Z,2.17
2019-03-12T21:15:48.058Z,2.17
2019-03-12T21:18:55.150Z,2.53
2019-03-12T21:21:36.308Z,2.43
2019-03-12T21:24:17.125Z,2.63
2019-03-12T21:27:25.663Z,2.30
2019-03-12T21:30:12.883Z,2.43
2019-03-12T21:33:00.666Z,2.47
2019-03-12T21:35:48.439Z,2.47
2019-03-12T21:38:36.231Z,2.40
2019-03-12T21:41:23.994Z,2.20
2019-03-12T21:44:11.832Z,2.57
2019-03-12T21:46:59.647Z,2.30
2019-03-12T21:49:47.461Z,2.80
2019-03-12T21:52:35.289Z,2.20
2019-03-12T21:55:23.344Z,2.13
2019-03-12T21:58:11.179Z,2.50
2019-03-12T22:00:58.974Z,2.33
2019-03-12T22:03:46.742Z,2.53
2019-03-12T22:06:34.521Z,2.20
2019-03-12T22:09:22.289Z,2.77
2019-03-12T22:12:10.075Z,2.53
2019-03-12T22:14:57.848Z,2.43
2019-03-12T22:17:45.923Z,2.40
2019-03-12T22:20:33.699Z,2.50
2019-03-12T22:25:57.081Z,1.90
2019-03-12T22:28:44.856Z,2.10
2019-03-12T22:31:32.983Z,2.10
2019-03-12T22:34:20.741Z,2.40
2019-03-12T22:37:08.521Z,2.30
2019-03-12T22:39:56.302Z,2.20
2019-03-12T22:42:44.366Z,1.90
2019-03-12T22:45:32.547Z,2.40
2019-03-12T22:48:20.319Z,2.30
2019-03-12T22:51:08.107Z,2.10
2019-03-12T22:53:49.119Z,1.93
2019-03-12T22:56:29.979Z,2.23
2019-03-12T22:59:10.966Z,2.20
2019-03-12T23:01:51.818Z,2.20
2019-03-12T23:04:32.782Z,2.27
2019-03-12T23:07:13.858Z,2.60
2019-03-12T23:09:54.768Z,2.13
2019-03-12T23:12:35.426Z,2.10
2019-03-12T23:15:16.819Z,2.20
2019-03-12T23:17:45.271Z,2.53
2019-03-12T23:20:33.058Z,2.17
2019-03-12T23:23:20.829Z,4.07
2019-03-12T23:26:08.618Z,2.20
2019-03-12T23:28:56.402Z,2.03
2019-03-12T23:31:44.191Z,2.33
2019-03-12T23:34:32.020Z,2.40
2019-03-12T23:37:19.814Z,2.30
2019-03-12T23:40:28.312Z,2.33
2019-03-12T23:43:16.089Z,2.10
2019-03-12T23:46:03.864Z,2.60
2019-03-12T23:48:51.638Z,1.90
2019-03-12T23:51:39.406Z,2.00
2019-03-12T23:54:27.194Z,2.13
2019-03-12T23:57:14.990Z,2.53
